createdAt,value
2022-08-18T00:02:21.233Z,4.00
2022-08-18T00:04:53.504Z,2.90
2022-08-18T00:07:32.172Z,4.60
2022-08-18T00:10:01.127Z,3.72
2022-08-18T00:12:34.740Z,3.67
2022-08-18T00:15:04.665Z,2.83
2022-08-18T00:17:34.071Z,2.80
2022-08-18T00:20:01.199Z,2.70
2022-08-18T00:22:28.498Z,3.08
2022-08-18T00:24:57.659Z,3.83
2022-08-18T00:27:29.179Z,3.83
2022-08-18T00:30:00.931Z,3.15
2022-08-18T00:32:36.678Z,4.03
2022-08-18T00:35:36.039Z,3.88
2022-08-18T00:38:06.319Z,2.65
2022-08-18T00:40:44.830Z,2.50
2022-08-18T00:43:23.377Z,2.92
2022-08-18T00:45:50.616Z,7.70
2022-08-18T00:48:18.828Z,4.25
2022-08-18T00:50:54.332Z,3.05
2022-08-18T00:53:29.401Z,3.38
2022-08-18T00:56:08.633Z,3.90
2022-08-18T00:58:47.261Z,3.88
2022-08-18T01:01:16.828Z,3.22
2022-08-18T01:03:52.016Z,5.15
2022-08-18T01:06:40.789Z,5.63
2022-08-18T01:09:09.477Z,2.80
2022-08-18T01:11:39.184Z,4.43
2022-08-18T01:14:09.621Z,2.90
2022-08-18T01:19:45.987Z,3.40
2022-08-18T01:22:49.452Z,3.30
2022-08-18T01:25:39.856Z,4.15
2022-08-18T01:28:07.730Z,2.83
2022-08-18T01:30:51.264Z,3.00
2022-08-18T01:33:19.110Z,3.22
2022-08-18T01:35:49.332Z,2.97
2022-08-18T01:38:20.925Z,3.40
2022-08-18T01:41:24.378Z,3.17
2022-08-18T01:43:36.646Z,2.47
2022-08-18T01:46:04.278Z,4.20
2022-08-18T01:48:36.549Z,6.32
2022-08-18T01:51:08.212Z,2.88
2022-08-18T01:53:37.955Z,5.38
2022-08-18T01:56:06.346Z,4.03
2022-08-18T01:58:35.569Z,5.95
2022-08-18T02:01:03.922Z,3.60
2022-08-18T02:03:46.767Z,3.13
2022-08-18T02:06:18.508Z,3.78
2022-08-18T02:08:59.471Z,3.03
2022-08-18T02:11:26.659Z,3.30
2022-08-18T02:13:53.625Z,4.35
2022-08-18T02:16:20.652Z,2.88
2022-08-18T02:18:48.881Z,3.22
2022-08-18T02:21:20.039Z,2.97
2022-08-18T02:23:53.214Z,4.72
2022-08-18T02:26:22.162Z,4.20
2022-08-18T02:28:49.557Z,2.65
2022-08-18T02:31:21.232Z,3.03
2022-08-18T02:33:51.933Z,2.83
2022-08-18T02:36:21.459Z,2.80
2022-08-18T02:38:56.787Z,2.45
2022-08-18T02:41:29.253Z,4.93
2022-08-18T02:43:57.883Z,3.22
2022-08-18T02:46:29.331Z,3.05
2022-08-18T02:48:57.765Z,3.00
2022-08-18T02:51:25.688Z,2.50
2022-08-18T02:53:54.243Z,2.92
2022-08-18T02:56:32.918Z,2.63
2022-08-18T02:59:14.829Z,2.63
2022-08-18T03:01:46.047Z,2.38
2022-08-18T03:04:16.444Z,3.33
2022-08-18T03:06:45.396Z,2.45
2022-08-18T03:09:16.356Z,3.28
2022-08-18T03:11:44.530Z,2.88
2022-08-18T03:14:13.108Z,3.10
2022-08-18T03:16:52.733Z,3.55
2022-08-18T03:19:28.132Z,2.85
2022-08-18T03:21:58.212Z,6.95
2022-08-18T03:24:31.434Z,8.88
2022-08-18T03:26:59.829Z,2.97
2022-08-18T03:29:32.066Z,3.63
2022-08-18T03:32:01.723Z,2.97
2022-08-18T03:34:29.748Z,3.05
2022-08-18T03:36:56.881Z,3.10
2022-08-18T03:39:25.030Z,3.10
2022-08-18T03:42:01.088Z,2.63
2022-08-18T03:44:33.217Z,3.47
2022-08-18T03:47:03.103Z,3.35
2022-08-18T03:49:33.381Z,4.40
2022-08-18T03:52:00.838Z,2.90
2022-08-18T03:54:29.424Z,2.72
2022-08-18T03:56:56.438Z,3.13
2022-08-18T03:59:26.104Z,3.08
2022-08-18T04:01:55.288Z,4.20
2022-08-18T04:04:27.260Z,4.57
2022-08-18T04:07:07.136Z,2.65
2022-08-18T04:09:36.102Z,2.80
2022-08-18T04:12:16.236Z,2.63
2022-08-18T04:14:48.048Z,2.95
2022-08-18T04:17:16.873Z,3.28
2022-08-18T04:19:43.968Z,3.25
2022-08-18T04:22:11.249Z,3.85
2022-08-18T04:24:45.390Z,3.47
2022-08-18T04:27:12.757Z,2.67
2022-08-18T04:29:39.804Z,3.92
2022-08-18T04:32:07.019Z,2.53
2022-08-18T04:34:34.884Z,3.30
2022-08-18T04:37:02.420Z,2.83
2022-08-18T04:39:30.544Z,3.72
2022-08-18T04:41:59.168Z,4.38
2022-08-18T04:44:26.445Z,2.95
2022-08-18T04:46:54.370Z,3.78
2022-08-18T04:49:26.248Z,3.00
2022-08-18T04:52:36.137Z,4.10
2022-08-18T04:55:01.728Z,5.43
2022-08-18T04:57:33.625Z,4.20
2022-08-18T05:00:01.211Z,3.75
2022-08-18T05:02:28.365Z,4.10
2022-08-18T05:04:55.412Z,2.45
2022-08-18T05:07:23.034Z,2.97
2022-08-18T05:09:54.032Z,3.20
2022-08-18T05:12:22.817Z,3.85
2022-08-18T05:14:56.727Z,3.25
2022-08-18T05:17:29.090Z,4.30
2022-08-18T05:19:59.923Z,2.90
2022-08-18T05:22:30.383Z,3.00
2022-08-18T05:24:58.175Z,2.63
2022-08-18T05:27:25.180Z,5.25
2022-08-18T05:29:52.149Z,3.72
2022-08-18T05:32:38.334Z,3.15
2022-08-18T05:35:15.067Z,3.92
2022-08-18T05:38:22.144Z,5.32
2022-08-18T05:41:14.341Z,3.47
2022-08-18T05:43:51.303Z,3.60
2022-08-18T05:46:24.676Z,5.93
2022-08-18T05:48:51.731Z,3.65
2022-08-18T05:51:41.276Z,3.85
2022-08-18T05:54:28.433Z,3.42
2022-08-18T05:57:02.271Z,3.10
2022-08-18T05:59:37.146Z,3.30
2022-08-18T06:02:33.304Z,5.38
2022-08-18T06:05:06.071Z,4.13
2022-08-18T06:07:53.120Z,3.10
2022-08-18T06:10:21.009Z,4.13
2022-08-18T06:12:59.857Z,3.63
2022-08-18T06:16:09.497Z,5.28
2022-08-18T06:19:16.021Z,4.22
2022-08-18T06:21:59.375Z,3.95
2022-08-18T06:24:56.177Z,5.18
2022-08-18T06:27:31.036Z,4.55
2022-08-18T06:30:17.526Z,3.80
2022-08-18T06:33:09.247Z,4.18
2022-08-18T06:35:51.947Z,4.20
2022-08-18T06:38:40.167Z,3.25
2022-08-18T06:41:40.960Z,6.55
2022-08-18T06:44:44.155Z,6.63
2022-08-18T06:47:29.464Z,5.43
2022-08-18T06:50:26.100Z,3.95
2022-08-18T06:52:56.794Z,4.72
2022-08-18T06:55:38.863Z,4.50
2022-08-18T06:58:27.689Z,4.05
2022-08-18T07:00:59.017Z,5.70
2022-08-18T07:04:04.432Z,4.55
2022-08-18T07:06:32.015Z,4.25
2022-08-18T07:09:20.683Z,8.10
2022-08-18T07:12:05.432Z,5.53
2022-08-18T07:14:57.992Z,5.10
2022-08-18T07:17:43.699Z,4.63
2022-08-18T07:20:25.497Z,4.70
2022-08-18T07:23:08.298Z,4.72
2022-08-18T07:25:43.003Z,6.07
2022-08-18T07:28:37.314Z,4.72
2022-08-18T07:31:36.198Z,5.95
2022-08-18T07:34:25.661Z,4.97
2022-08-18T07:37:14.472Z,4.22
2022-08-18T07:40:07.351Z,3.90
2022-08-18T07:43:01.268Z,4.97
2022-08-18T07:45:45.162Z,4.70
2022-08-18T07:48:38.734Z,4.22
2022-08-18T07:51:22.299Z,4.90
2022-08-18T07:54:48.941Z,3.83
2022-08-18T07:57:43.632Z,6.07
2022-08-18T08:00:58.716Z,6.35
2022-08-18T08:03:31.665Z,4.68
2022-08-18T08:06:03.078Z,5.93
2022-08-18T08:08:42.009Z,6.45
2022-08-18T08:11:53.051Z,5.82
2022-08-18T08:14:45.768Z,6.60
2022-08-18T08:17:53.996Z,5.15
2022-08-18T08:20:52.621Z,5.70
2022-08-18T08:23:52.136Z,6.22
2022-08-18T08:26:51.878Z,5.00
2022-08-18T08:29:54.594Z,3.63
2022-08-18T08:32:32.568Z,6.63
2022-08-18T08:35:47.353Z,6.60
2022-08-18T08:38:42.752Z,6.30
2022-08-18T08:41:28.271Z,6.57
2022-08-18T08:44:58.205Z,5.38
2022-08-18T08:50:11.523Z,4.07
2022-08-18T08:52:56.870Z,5.13
2022-08-18T08:55:31.134Z,6.22
2022-08-18T08:58:26.452Z,10.65
2022-08-18T09:00:55.049Z,9.68
2022-08-18T09:03:52.472Z,6.82
2022-08-18T09:06:32.608Z,6.70
2022-08-18T09:09:49.884Z,6.45
2022-08-18T09:12:51.618Z,4.07
2022-08-18T09:16:27.666Z,4.28
2022-08-18T09:19:31.199Z,4.18
2022-08-18T09:22:16.005Z,4.18
2022-08-18T09:24:51.112Z,5.20
2022-08-18T09:28:07.107Z,5.63
2022-08-18T09:30:43.616Z,5.95
2022-08-18T09:33:34.180Z,6.20
2022-08-18T09:36:25.937Z,8.48
2022-08-18T09:39:23.200Z,6.50
2022-08-18T09:41:58.229Z,6.45
2022-08-18T09:45:01.476Z,8.13
2022-08-18T09:47:30.346Z,7.53
2022-08-18T09:50:06.544Z,7.05
2022-08-18T09:52:33.369Z,7.70
2022-08-18T09:55:27.061Z,7.78
2022-08-18T09:58:17.939Z,7.70
2022-08-18T10:00:45.419Z,7.32
2022-08-18T10:03:26.044Z,7.97
2022-08-18T10:06:12.901Z,9.90
2022-08-18T10:09:17.670Z,7.38
2022-08-18T10:12:48.936Z,9.25
2022-08-18T10:15:45.000Z,8.82
2022-08-18T10:18:53.884Z,7.25
2022-08-18T10:24:38.085Z,7.45
2022-08-18T10:27:53.974Z,6.07
2022-08-18T10:30:34.543Z,7.20
2022-08-18T10:33:18.381Z,7.22
2022-08-18T10:35:59.720Z,6.82
2022-08-18T10:38:49.395Z,8.40
2022-08-18T10:41:31.972Z,6.37
2022-08-18T10:44:20.927Z,7.47
2022-08-18T10:46:49.987Z,6.57
2022-08-18T10:49:26.382Z,6.93
2022-08-18T10:52:07.777Z,5.95
2022-08-18T10:55:10.190Z,7.38
2022-08-18T10:58:31.191Z,8.45
2022-08-18T11:01:32.911Z,11.50
2022-08-18T11:04:34.160Z,6.93
2022-08-18T11:07:09.689Z,8.00
2022-08-18T11:13:13.461Z,7.95
2022-08-18T11:16:10.288Z,8.90
2022-08-18T11:18:58.240Z,8.07
2022-08-18T11:21:42.727Z,6.30
2022-08-18T11:24:17.678Z,6.15
2022-08-18T11:26:52.903Z,7.97
2022-08-18T11:29:28.707Z,6.35
2022-08-18T11:32:03.921Z,5.93
2022-08-18T11:34:39.202Z,8.05
2022-08-18T11:37:49.507Z,10.82
2022-08-18T11:41:08.898Z,7.30
2022-08-18T11:43:40.816Z,9.13
2022-08-18T11:46:24.077Z,6.80
2022-08-18T11:48:56.971Z,6.47
2022-08-18T11:51:32.197Z,6.30
2022-08-18T11:54:04.839Z,7.60
2022-08-18T11:56:36.009Z,7.53
2022-08-18T11:59:52.631Z,9.63
2022-08-18T12:02:18.693Z,7.30
2022-08-18T12:04:52.919Z,7.50
2022-08-18T12:07:35.724Z,8.60
2022-08-18T12:10:30.055Z,7.45
2022-08-18T12:13:00.705Z,6.50
2022-08-18T12:18:28.398Z,8.35
2022-08-18T12:20:59.380Z,7.47
2022-08-18T12:23:38.509Z,6.35
2022-08-18T12:26:06.033Z,10.05
2022-08-18T12:28:53.097Z,8.60
2022-08-18T12:31:20.141Z,7.13
2022-08-18T12:34:00.693Z,7.55
2022-08-18T12:36:43.650Z,5.82
2022-08-18T12:39:10.704Z,6.80
2022-08-18T12:41:37.916Z,7.68
2022-08-18T12:44:05.052Z,6.80
2022-08-18T12:46:42.760Z,6.72
2022-08-18T12:49:19.286Z,8.77
2022-08-18T12:51:50.141Z,6.00
2022-08-18T12:54:18.640Z,5.85
2022-08-18T12:56:51.168Z,6.15
2022-08-18T12:59:18.861Z,5.30
2022-08-18T13:01:46.740Z,4.93
2022-08-18T13:04:15.592Z,7.88
2022-08-18T13:07:00.217Z,4.65
2022-08-18T13:09:35.170Z,4.93
2022-08-18T13:12:17.171Z,5.32
2022-08-18T13:14:45.710Z,5.33
2022-08-18T13:17:32.338Z,6.20
2022-08-18T13:20:14.858Z,7.03
2022-08-18T13:22:42.371Z,8.05
2022-08-18T13:25:32.256Z,4.43
2022-08-18T13:28:01.728Z,4.30
2022-08-18T13:30:31.409Z,5.28
2022-08-18T13:33:05.975Z,4.55
2022-08-18T13:35:52.329Z,4.00
2022-08-18T13:38:25.969Z,4.35
2022-08-18T13:40:58.151Z,4.47
2022-08-18T13:43:32.321Z,4.03
2022-08-18T13:46:02.087Z,4.40
2022-08-18T13:48:30.452Z,4.10
2022-08-18T13:51:01.108Z,5.32
2022-08-18T13:53:31.321Z,5.75
2022-08-18T13:55:59.589Z,3.88
2022-08-18T13:58:30.015Z,3.70
2022-08-18T14:01:39.529Z,4.00
2022-08-18T14:03:50.709Z,3.80
2022-08-18T14:06:22.550Z,4.10
2022-08-18T14:08:52.971Z,4.22
2022-08-18T14:11:33.051Z,4.55
2022-08-18T14:14:02.089Z,4.53
2022-08-18T14:16:29.349Z,5.90
2022-08-18T14:19:17.785Z,4.38
2022-08-18T14:22:11.506Z,5.32
2022-08-18T14:25:00.386Z,4.43
2022-08-18T14:27:37.537Z,4.72
2022-08-18T14:30:09.719Z,4.80
2022-08-18T14:32:48.727Z,6.18
2022-08-18T14:36:03.837Z,5.03
2022-08-18T14:38:08.083Z,5.13
2022-08-18T14:40:43.815Z,4.68
2022-08-18T14:43:14.649Z,5.32
2022-08-18T14:45:47.500Z,6.38
2022-08-18T14:48:22.946Z,5.80
2022-08-18T14:50:55.334Z,6.63
2022-08-18T14:53:28.065Z,5.20
2022-08-18T14:55:57.550Z,6.07
2022-08-18T14:58:30.039Z,7.20
2022-08-18T15:01:00.592Z,6.22
2022-08-18T15:03:31.805Z,6.20
2022-08-18T15:06:04.799Z,7.90
2022-08-18T15:08:35.245Z,6.05
2022-08-18T15:11:11.303Z,8.10
2022-08-18T15:13:45.106Z,5.72
2022-08-18T15:16:16.648Z,6.50
2022-08-18T15:18:47.551Z,7.57
2022-08-18T15:21:35.075Z,7.80
2022-08-18T15:24:25.751Z,7.95
2022-08-18T15:26:57.965Z,7.65
2022-08-18T15:29:31.349Z,7.68
2022-08-18T15:32:05.907Z,7.47
2022-08-18T15:34:47.085Z,7.45
2022-08-18T15:37:24.225Z,7.03
2022-08-18T15:40:21.918Z,7.93
2022-08-18T15:43:10.122Z,8.35
2022-08-18T15:45:56.456Z,7.43
2022-08-18T15:48:28.305Z,7.28
2022-08-18T15:53:29.970Z,6.88
2022-08-18T15:55:57.802Z,7.68
2022-08-18T15:58:26.781Z,9.85
2022-08-18T16:00:58.913Z,7.20
2022-08-18T16:03:26.169Z,9.93
2022-08-18T16:05:55.463Z,7.38
2022-08-18T16:08:25.468Z,6.35
2022-08-18T16:10:54.073Z,5.75
2022-08-18T16:13:22.082Z,6.80
2022-08-18T16:15:49.861Z,6.63
2022-08-18T16:18:21.000Z,6.53
2022-08-18T16:20:48.393Z,6.18
2022-08-18T16:23:19.973Z,6.50
2022-08-18T16:25:47.001Z,5.70
2022-08-18T16:28:13.971Z,7.95
2022-08-18T16:30:41.556Z,8.50
2022-08-18T16:33:08.921Z,10.07
2022-08-18T16:35:37.338Z,6.15
2022-08-18T16:38:09.345Z,6.13
2022-08-18T16:40:37.483Z,6.05
2022-08-18T16:43:05.869Z,5.85
2022-08-18T16:45:36.065Z,6.25
2022-08-18T16:48:03.791Z,9.25
2022-08-18T16:50:30.789Z,6.30
2022-08-18T16:52:58.027Z,7.88
2022-08-18T16:55:25.179Z,6.82
2022-08-18T16:58:15.254Z,6.85
2022-08-18T17:01:02.781Z,6.35
2022-08-18T17:03:48.124Z,6.03
2022-08-18T17:06:18.644Z,6.07
2022-08-18T17:08:45.706Z,5.93
2022-08-18T17:11:18.193Z,5.57
2022-08-18T17:13:48.394Z,5.20
2022-08-18T17:16:18.202Z,6.80
2022-08-18T17:18:45.436Z,6.22
2022-08-18T17:21:20.398Z,5.35
2022-08-18T17:23:51.787Z,5.15
2022-08-18T17:26:59.664Z,5.28
2022-08-18T17:29:43.932Z,5.60
2022-08-18T17:35:21.071Z,4.95
2022-08-18T17:38:08.231Z,4.78
2022-08-18T17:40:51.519Z,5.03
2022-08-18T17:43:23.164Z,5.68
2022-08-18T17:46:01.230Z,5.05
2022-08-18T17:48:32.572Z,5.03
2022-08-18T17:51:55.099Z,5.47
2022-08-18T17:54:51.404Z,6.63
2022-08-18T17:57:29.660Z,4.28
2022-08-18T18:00:17.257Z,5.32
2022-08-18T18:02:46.203Z,4.75
2022-08-18T18:05:18.644Z,4.53
2022-08-18T18:07:51.379Z,4.88
2022-08-18T18:11:03.917Z,4.80
2022-08-18T18:13:32.956Z,4.68
2022-08-18T18:16:35.283Z,5.30
2022-08-18T18:19:07.637Z,5.82
2022-08-18T18:21:56.599Z,5.13
2022-08-18T18:24:32.757Z,5.72
2022-08-18T18:26:59.833Z,4.55
2022-08-18T18:29:35.916Z,4.88
2022-08-18T18:32:25.011Z,4.78
2022-08-18T18:35:27.537Z,4.80
2022-08-18T18:38:01.214Z,4.97
2022-08-18T18:40:55.724Z,5.13
2022-08-18T18:43:43.501Z,4.25
2022-08-18T18:46:18.809Z,4.75
2022-08-18T18:49:18.889Z,4.13
2022-08-18T18:52:19.188Z,4.82
2022-08-18T18:55:01.480Z,5.15
2022-08-18T18:57:54.247Z,6.80
2022-08-18T19:00:33.198Z,4.95
2022-08-18T19:03:18.790Z,4.60
2022-08-18T19:06:06.248Z,4.05
2022-08-18T19:08:51.826Z,6.68
2022-08-18T19:11:30.396Z,5.15
2022-08-18T19:14:07.728Z,7.10
2022-08-18T19:16:45.542Z,5.15
2022-08-18T19:19:38.071Z,6.80
2022-08-18T19:22:36.483Z,6.63
2022-08-18T19:25:55.591Z,5.65
2022-08-18T19:29:12.231Z,6.10
2022-08-18T19:31:40.869Z,6.53
2022-08-18T19:34:31.049Z,5.43
2022-08-18T19:37:31.016Z,5.85
2022-08-18T19:40:33.538Z,6.63
2022-08-18T19:43:12.497Z,5.50
2022-08-18T19:45:57.165Z,6.30
2022-08-18T19:48:37.307Z,6.90
2022-08-18T19:51:27.532Z,6.65
2022-08-18T19:54:23.582Z,6.93
2022-08-18T19:57:53.162Z,10.75
2022-08-18T20:00:48.915Z,6.85
2022-08-18T20:03:39.869Z,6.63
2022-08-18T20:06:42.359Z,7.32
2022-08-18T20:09:55.560Z,8.00
2022-08-18T20:13:13.035Z,7.63
2022-08-18T20:16:24.937Z,6.78
2022-08-18T20:18:56.227Z,6.85
2022-08-18T20:21:41.422Z,6.68
2022-08-18T20:24:51.088Z,7.22
2022-08-18T20:27:37.627Z,6.85
2022-08-18T20:30:39.659Z,7.18
2022-08-18T20:33:29.851Z,7.70
2022-08-18T20:36:36.879Z,7.95
2022-08-18T20:39:40.914Z,7.03
2022-08-18T20:42:34.400Z,7.82
2022-08-18T20:45:14.047Z,7.57
2022-08-18T20:47:55.160Z,7.82
2022-08-18T20:50:43.456Z,9.20
2022-08-18T20:53:50.222Z,7.15
2022-08-18T20:56:48.322Z,6.55
2022-08-18T20:59:28.629Z,7.20
2022-08-18T21:02:03.699Z,7.82
2022-08-18T21:04:49.300Z,8.60
2022-08-18T21:07:36.135Z,7.65
2022-08-18T21:10:30.234Z,7.30
2022-08-18T21:13:04.660Z,7.18
2022-08-18T21:15:38.150Z,8.10
2022-08-18T21:18:22.682Z,7.70
2022-08-18T21:20:52.176Z,7.32
2022-08-18T21:23:35.964Z,7.13
2022-08-18T21:26:22.100Z,7.53
2022-08-18T21:28:54.607Z,8.73
2022-08-18T21:31:42.542Z,10.38
2022-08-18T21:34:30.117Z,7.13
2022-08-18T21:37:00.488Z,12.70
2022-08-18T21:41:57.824Z,9.90
2022-08-18T21:44:43.550Z,9.18
2022-08-18T21:47:31.784Z,8.75
2022-08-18T21:50:14.848Z,9.90
2022-08-18T21:52:55.689Z,8.50
2022-08-18T21:55:36.313Z,8.45
2022-08-18T21:58:16.391Z,7.43
2022-08-18T22:01:04.864Z,8.30
2022-08-18T22:03:34.305Z,8.10
2022-08-18T22:06:34.686Z,7.82
2022-08-18T22:09:29.414Z,7.85
2022-08-18T22:12:43.132Z,9.85
2022-08-18T22:15:32.368Z,7.65
2022-08-18T22:18:02.430Z,7.47
2022-08-18T22:20:55.018Z,8.95
2022-08-18T22:24:04.428Z,7.40
2022-08-18T22:26:37.398Z,8.57
2022-08-18T22:29:13.402Z,7.88
2022-08-18T22:31:48.591Z,7.53
2022-08-18T22:34:27.754Z,10.55
2022-08-18T22:37:08.318Z,8.05
2022-08-18T22:39:53.340Z,7.78
2022-08-18T22:42:26.427Z,7.85
2022-08-18T22:44:54.205Z,11.90
2022-08-18T22:47:21.253Z,10.15
2022-08-18T22:49:48.388Z,7.70
2022-08-18T22:52:34.092Z,7.70
2022-08-18T22:55:06.867Z,7.63
2022-08-18T22:57:38.884Z,8.43
2022-08-18T23:00:15.561Z,7.45
2022-08-18T23:02:43.237Z,8.63
2022-08-18T23:05:11.927Z,7.72
2022-08-18T23:07:38.947Z,7.07
2022-08-18T23:10:13.875Z,9.70
2022-08-18T23:12:44.403Z,8.70
2022-08-18T23:15:11.720Z,8.20
2022-08-18T23:17:40.903Z,8.48
2022-08-18T23:20:17.928Z,8.30
2022-08-18T23:22:47.994Z,11.27
2022-08-18T23:25:15.582Z,7.97
2022-08-18T23:27:42.871Z,8.68
2022-08-18T23:30:10.957Z,9.60
2022-08-18T23:32:37.989Z,7.70
2022-08-18T23:35:05.692Z,8.23
2022-08-18T23:37:32.920Z,7.47
2022-08-18T23:40:00.020Z,8.55
2022-08-18T23:42:27.067Z,9.15
2022-08-18T23:44:54.087Z,10.02
2022-08-18T23:47:21.276Z,7.95
2022-08-18T23:49:48.478Z,9.23
2022-08-18T23:52:15.572Z,9.95
2022-08-18T23:54:42.565Z,8.73
2022-08-18T23:57:09.516Z,7.40
2022-08-18T23:59:36.597Z,9.73
